Time;durP1;ratioP1;P1;durP2;ratioP2;P2;SDS_P1;SDS_P2;PMS_P1;PMS_P2;Temp;Humidity;BMP_temperature;BMP_pressure;BME280_temperature;BME280_humidity;BME280_pressure;Samples;Min_cycle;Max_cycle;Signal;HPM_P1;HPM_P2
2024/01/09 00:04:29;;;;;;;1999.90;999.90;;;;;;;-3.63;72.33;103343.53;10340103;28;20050;-65
2024/01/09 00:09:34;;;;;;;1999.90;999.90;;;;;;;-3.62;71.38;103330.78;10339705;28;20474;-64
2024/01/09 00:14:37;;;;;;;1999.90;999.90;;;;;;;-3.68;72.31;103327.09;10338403;28;20163;-66
2024/01/09 00:19:39;;;;;;;1999.90;999.90;;;;;;;-3.78;71.65;103321.59;10339624;28;20061;-67
2024/01/09 00:24:42;;;;;;;1999.90;999.90;;;;;;;-3.67;72.37;103326.28;10337933;28;20050;-66
2024/01/09 00:29:44;;;;;;;1999.90;999.90;;;;;;;-3.75;73.26;103329.41;10338995;28;20500;-66
2024/01/09 00:34:46;;;;;;;1999.90;999.90;;;;;;;-4.06;73.02;103329.75;10337562;28;20062;-66
2024/01/09 00:39:51;;;;;;;1999.90;999.90;;;;;;;-3.93;73.59;103337.16;10338796;28;20046;-67
2024/01/09 00:44:53;;;;;;;1999.90;999.90;;;;;;;-3.83;74.39;103325.66;10338608;28;20046;-67
2024/01/09 00:49:56;;;;;;;1999.90;999.90;;;;;;;-4.22;74.48;103333.34;10336972;28;20124;-66
2024/01/09 00:54:58;;;;;;;1999.90;999.90;;;;;;;-4.04;73.92;103323.03;10337758;28;20076;-66
2024/01/09 01:00:01;;;;;;;1999.90;999.90;;;;;;;-3.86;74.21;103322.09;10337901;28;20440;-66
2024/01/09 01:05:03;;;;;;;1999.90;999.90;;;;;;;-3.93;74.10;103318.38;10337751;28;20074;-66
2024/01/09 01:10:06;;;;;;;1999.90;999.90;;;;;;;-3.97;73.66;103322.50;10337117;28;20054;-66
2024/01/09 01:15:09;;;;;;;1999.90;999.90;;;;;;;-4.13;73.82;103317.53;10337929;28;20085;-67
2024/01/09 01:20:11;;;;;;;1999.90;999.90;;;;;;;-4.05;74.39;103326.41;10335850;28;20101;-67
2024/01/09 01:25:14;;;;;;;1999.90;999.90;;;;;;;-4.13;74.64;103322.63;10336754;28;20057;-66
2024/01/09 01:30:16;;;;;;;1999.90;999.90;;;;;;;-4.09;74.12;103315.97;10336696;28;20058;-67
2024/01/09 01:35:19;;;;;;;1999.90;999.90;;;;;;;-4.20;74.01;103318.03;10336361;28;20054;-67
2024/01/09 01:40:21;;;;;;;1999.90;999.90;;;;;;;-4.24;73.36;103322.16;10336534;28;20046;-66
2024/01/09 01:45:26;;;;;;;1999.90;999.90;;;;;;;-4.35;73.81;103318.25;10336020;28;20050;-67
2024/01/09 01:50:30;;;;;;;1999.90;999.90;;;;;;;-4.35;74.08;103323.38;10335223;28;20533;-67
2024/01/09 01:55:33;;;;;;;1999.90;999.90;;;;;;;-4.37;75.34;103318.19;10334455;28;20058;-67
2024/01/09 02:00:37;;;;;;;1999.90;999.90;;;;;;;-4.44;75.06;103317.81;10334227;28;20477;-67
2024/01/09 02:05:40;;;;;;;1999.90;999.90;;;;;;;-4.37;74.88;103307.94;10334179;28;20572;-67
2024/01/09 02:10:42;;;;;;;1999.90;999.90;;;;;;;-4.53;74.68;103306.38;10334047;28;20061;-67
2024/01/09 02:15:45;;;;;;;1999.90;999.90;;;;;;;-4.35;74.07;103310.59;10335160;28;20057;-67
2024/01/09 02:20:47;;;;;;;1999.90;999.90;;;;;;;-4.50;75.16;103308.22;10333632;28;20061;-68
2024/01/09 02:25:52;;;;;;;1999.90;999.90;;;;;;;-4.51;74.88;103302.19;10333361;28;20537;-67
2024/01/09 02:30:56;;;;;;;1999.90;999.90;;;;;;;-4.38;74.92;103298.50;10334418;28;20046;-66
2024/01/09 02:36:02;;;;;;;1999.90;999.90;;;;;;;-4.64;75.40;103288.78;10333220;28;20050;-66
2024/01/09 02:41:04;;;;;;;1999.90;999.90;;;;;;;-4.54;74.38;103285.84;10334375;28;20046;-66
2024/01/09 02:46:07;;;;;;;1999.90;999.90;;;;;;;-4.31;75.01;103286.88;10334029;28;20112;-66
2024/01/09 02:51:09;;;;;;;1999.90;999.90;;;;;;;-4.59;76.34;103285.66;10333761;28;20397;-66
2024/01/09 02:56:12;;;;;;;1999.90;999.90;;;;;;;-4.60;75.76;103286.44;10333594;28;20405;-67
2024/01/09 03:01:14;;;;;;;1999.90;999.90;;;;;;;-4.67;75.61;103290.41;10334169;28;20050;-65
2024/01/09 03:06:16;;;;;;;1999.90;999.90;;;;;;;-4.38;75.70;103289.97;10333747;28;20537;-66
2024/01/09 03:11:19;;;;;;;1999.90;999.90;;;;;;;-4.62;76.54;103285.50;10333482;28;20129;-66
2024/01/09 03:16:21;;;;;;;1999.90;999.90;;;;;;;-4.54;76.42;103301.19;10333634;28;20133;-65
2024/01/09 03:21:24;;;;;;;1999.90;999.90;;;;;;;-4.68;75.45;103308.25;10332124;28;20053;-65
2024/01/09 03:26:26;;;;;;;1999.90;999.90;;;;;;;-4.59;75.61;103313.78;10333962;28;20054;-65
2024/01/09 03:31:29;;;;;;;1999.90;999.90;;;;;;;-4.70;76.09;103297.94;10333155;28;20081;-65
2024/01/09 03:36:31;;;;;;;1999.90;999.90;;;;;;;-4.64;76.77;103296.47;10340450;28;20057;-66
2024/01/09 03:41:34;;;;;;;1999.90;999.90;;;;;;;-4.64;77.21;103292.22;10341010;28;20043;-66
2024/01/09 03:46:36;;;;;;;1999.90;999.90;;;;;;;-4.73;77.05;103297.78;10341132;28;20054;-66
2024/01/09 03:51:38;;;;;;;1999.90;999.90;;;;;;;-4.67;76.89;103294.66;10340522;28;20101;-66
2024/01/09 03:56:41;;;;;;;1999.90;999.90;;;;;;;-4.57;77.99;103298.47;10339382;28;20061;-66
2024/01/09 04:01:43;;;;;;;1999.90;999.90;;;;;;;-4.68;77.69;103293.75;10340074;28;20050;-66
2024/01/09 04:06:46;;;;;;;1999.90;999.90;;;;;;;-4.67;78.43;103294.66;10340402;28;20077;-66
2024/01/09 04:11:48;;;;;;;1999.90;999.90;;;;;;;-4.82;78.17;103289.72;10339711;28;20043;-66
2024/01/09 04:16:51;;;;;;;1999.90;999.90;;;;;;;-4.70;78.67;103292.81;10339430;28;20487;-66
2024/01/09 04:21:53;;;;;;;1999.90;999.90;;;;;;;-4.61;78.29;103292.34;10338254;28;20042;-66
2024/01/09 04:26:55;;;;;;;1999.90;999.90;;;;;;;-4.74;77.82;103293.50;10322117;28;20093;-65
2024/01/09 04:31:58;;;;;;;1999.90;999.90;;;;;;;-4.81;77.58;103288.88;10339299;28;20513;-66
2024/01/09 04:37:00;;;;;;;1999.90;999.90;;;;;;;-4.63;77.84;103295.66;10338811;28;20486;-66
2024/01/09 04:42:03;;;;;;;1999.90;999.90;;;;;;;-4.72;76.87;103285.91;10338778;28;20121;-66
2024/01/09 04:47:05;;;;;;;1999.90;999.90;;;;;;;-4.73;76.62;103291.81;10337274;28;20054;-66
2024/01/09 04:52:07;;;;;;;1999.90;999.90;;;;;;;-4.52;75.81;103282.56;10338183;28;20121;-66
2024/01/09 04:57:10;;;;;;;1999.90;999.90;;;;;;;-4.80;76.70;103283.00;10336835;28;20482;-66
2024/01/09 05:02:12;;;;;;;1999.90;999.90;;;;;;;-4.51;75.95;103286.00;10336771;28;20488;-66
2024/01/09 05:07:15;;;;;;;1999.90;999.90;;;;;;;-4.52;76.38;103284.25;10337702;28;20484;-66
2024/01/09 05:12:17;;;;;;;1999.90;999.90;;;;;;;-4.67;76.92;103285.31;10337383;28;20047;-66
2024/01/09 05:17:19;;;;;;;1999.90;999.90;;;;;;;-4.74;76.60;103290.06;10336240;28;20125;-67
2024/01/09 05:22:22;;;;;;;1999.90;999.90;;;;;;;-4.59;75.95;103284.75;10337138;28;20046;-65
2024/01/09 05:27:24;;;;;;;1999.90;999.90;;;;;;;-4.70;76.10;103287.72;10337016;28;20054;-66
2024/01/09 05:32:27;;;;;;;1999.90;999.90;;;;;;;-4.75;76.97;103288.31;10336725;28;20054;-66
2024/01/09 05:37:29;;;;;;;1999.90;999.90;;;;;;;-4.68;76.59;103290.34;10336575;28;20125;-66
2024/01/09 05:42:31;;;;;;;1999.90;999.90;;;;;;;-4.69;75.96;103293.69;10336272;28;20428;-66
2024/01/09 05:47:34;;;;;;;1999.90;999.90;;;;;;;-4.65;76.46;103293.03;10336003;28;20061;-66
2024/01/09 05:52:37;;;;;;;1999.90;999.90;;;;;;;-4.78;76.42;103298.41;10335849;28;20055;-66
2024/01/09 05:57:40;;;;;;;1999.90;999.90;;;;;;;-4.86;75.92;103304.03;10334079;28;20052;-66
2024/01/09 06:02:42;;;;;;;1999.90;999.90;;;;;;;-4.87;76.66;103304.81;10335776;28;20049;-66
2024/01/09 06:07:45;;;;;;;1999.90;999.90;;;;;;;-4.56;76.86;103301.13;10348613;22;20089;-64
2024/01/09 06:12:47;;;;;;;1999.90;999.90;;;;;;;-5.02;76.39;103303.25;10335403;28;20050;-66
2024/01/09 06:17:50;;;;;;;1999.90;999.90;;;;;;;-5.09;77.38;103296.97;10335156;28;20408;-64
2024/01/09 06:22:52;;;;;;;1999.90;999.90;;;;;;;-5.12;76.70;103304.50;10335050;28;20070;-64
2024/01/09 06:27:54;;;;;;;1999.90;999.90;;;;;;;-5.05;77.01;103312.50;10333733;28;20050;-65
2024/01/09 06:32:57;;;;;;;1999.90;999.90;;;;;;;-5.29;78.43;103312.22;10334350;28;20476;-65
2024/01/09 06:37:59;;;;;;;1999.90;999.90;;;;;;;-5.04;79.32;103323.63;10334260;28;20548;-64
2024/01/09 06:43:02;;;;;;;1999.90;999.90;;;;;;;-5.18;78.70;103316.94;10333215;28;20050;-64
2024/01/09 06:48:04;;;;;;;1999.90;999.90;;;;;;;-5.27;79.46;103330.16;10316821;28;20116;-64
2024/01/09 06:53:07;;;;;;;1999.90;999.90;;;;;;;-5.26;79.17;103331.94;10317295;28;20412;-64
2024/01/09 06:58:12;;;;;;;1999.90;999.90;;;;;;;-5.26;79.31;103337.91;10332592;28;20409;-64
2024/01/09 07:03:14;;;;;;;1999.90;999.90;;;;;;;-5.22;80.33;103339.78;10334095;28;20130;-64
2024/01/09 07:08:17;;;;;;;1999.90;999.90;;;;;;;-5.38;79.26;103337.28;10336188;28;20180;-64
2024/01/09 07:13:19;;;;;;;1999.90;999.90;;;;;;;-5.32;80.52;103339.28;10341882;28;20047;-64
2024/01/09 07:18:24;;;;;;;1999.90;999.90;;;;;;;-5.37;80.79;103351.81;10341713;28;20050;-65
2024/01/09 07:23:27;;;;;;;1999.90;999.90;;;;;;;-5.63;81.07;103353.94;10340468;28;20584;-64
2024/01/09 07:28:29;;;;;;;1999.90;999.90;;;;;;;-5.42;80.54;103358.38;10341490;28;20464;-64
2024/01/09 07:33:34;;;;;;;1999.90;999.90;;;;;;;-5.54;80.34;103370.53;10340320;28;20137;-64
2024/01/09 07:38:36;;;;;;;1999.90;999.90;;;;;;;-5.67;80.17;103364.78;10339825;28;20046;-64
2024/01/09 07:43:39;;;;;;;1999.90;999.90;;;;;;;-5.57;80.15;103376.34;10339757;28;20405;-64
2024/01/09 07:48:41;;;;;;;1999.90;999.90;;;;;;;-5.65;80.84;103363.22;10340677;28;20050;-64
2024/01/09 07:53:44;;;;;;;1999.90;999.90;;;;;;;-5.33;81.42;103368.16;10340323;28;20043;-64
2024/01/09 07:58:46;;;;;;;1999.90;999.90;;;;;;;-5.63;81.33;103370.91;10340276;28;20054;-64
2024/01/09 08:03:49;;;;;;;1999.90;999.90;;;;;;;-5.58;80.42;103372.06;10340162;28;20449;-64
2024/01/09 08:08:51;;;;;;;1999.90;999.90;;;;;;;-5.47;80.71;103367.47;10322821;28;20082;-64
2024/01/09 08:13:53;;;;;;;1999.90;999.90;;;;;;;-5.55;78.60;103377.28;10339679;28;20093;-64
2024/01/09 08:18:56;;;;;;;1999.90;999.90;;;;;;;-5.32;79.87;103378.44;10338078;28;20050;-64
2024/01/09 08:23:58;;;;;;;1999.90;999.90;;;;;;;-5.49;78.49;103376.75;10338507;28;20092;-65
2024/01/09 08:29:02;;;;;;;1999.90;999.90;;;;;;;-5.44;78.33;103383.81;10339365;28;20046;-64
2024/01/09 08:34:05;;;;;;;1999.90;999.90;;;;;;;-5.09;78.57;103376.16;10337804;28;20133;-64
2024/01/09 08:39:07;;;;;;;1999.90;999.90;;;;;;;-5.43;77.49;103384.69;10338828;28;20485;-64
2024/01/09 08:44:10;;;;;;;1999.90;999.90;;;;;;;-4.95;77.78;103375.13;10338716;28;20046;-64
2024/01/09 08:49:12;;;;;;;1999.90;999.90;;;;;;;-5.20;77.04;103385.84;10338511;28;20109;-64
2024/01/09 08:54:15;;;;;;;1999.90;999.90;;;;;;;-4.97;76.72;103381.00;10338124;28;20528;-64
2024/01/09 08:59:17;;;;;;;1999.90;999.90;;;;;;;-5.00;76.38;103379.16;10338649;28;20054;-65
2024/01/09 09:04:20;;;;;;;1999.90;999.90;;;;;;;-5.00;76.55;103381.72;10375853;28;20049;-65
2024/01/09 09:09:22;;;;;;;1999.90;999.90;;;;;;;-4.95;76.47;103375.13;10346464;28;20055;-65
2024/01/09 09:14:25;;;;;;;1999.90;999.90;;;;;;;-4.75;74.97;103377.78;10298878;28;20130;-65
2024/01/09 09:19:27;;;;;;;1999.90;999.90;;;;;;;-4.74;74.35;103376.97;10355806;28;20062;-65
2024/01/09 09:30:56;;;;;;;1999.90;999.90;;;;;;;-1.02;71.25;103390.00;10346571;28;20038;-66
2024/01/09 09:36:05;;;;;;;1999.90;999.90;;;;;;;1.64;61.14;103379.06;10352445;28;20042;-65
2024/01/09 09:41:08;;;;;;;1999.90;999.90;;;;;;;3.73;59.05;103375.66;10353619;28;20507;-65
2024/01/09 09:46:17;;;;;;;1999.90;999.90;;;;;;;4.02;56.02;103364.78;10320696;28;20058;-63
2024/01/09 09:51:22;;;;;;;1999.90;999.90;;;;;;;1.53;58.46;103370.22;10335172;28;20054;-64
2024/01/09 09:56:28;;;;;;;1999.90;999.90;;;;;;;-0.75;60.08;103377.16;10332993;28;20054;-64
2024/01/09 10:01:31;;;;;;;1999.90;999.90;;;;;;;-0.81;61.24;103374.38;10330459;28;20145;-64
2024/01/09 10:06:37;;;;;;;1999.90;999.90;;;;;;;-0.77;59.11;103364.22;10330092;28;20050;-64
2024/01/09 10:11:40;;;;;;;1999.90;999.90;;;;;;;-2.01;61.91;103368.66;10331603;28;20478;-64
2024/01/09 10:16:53;;;;;;;1999.90;999.90;;;;;;;-1.53;62.82;103360.94;10333368;28;20058;-61
2024/01/09 10:21:56;;;;;;;1999.90;999.90;;;;;;;-2.44;66.15;103360.25;10335545;28;20055;-61
2024/01/09 10:26:58;;;;;;;1999.90;999.90;;;;;;;-2.65;64.91;103356.88;10335203;28;20382;-61
2024/01/09 10:32:04;;;;;;;1999.90;999.90;;;;;;;-2.51;66.73;103355.69;10333658;28;20042;-61
2024/01/09 10:37:09;;;;;;;1999.90;999.90;;;;;;;-2.49;64.77;103348.06;10333041;28;20124;-62
2024/01/09 10:42:12;;;;;;;1999.90;999.90;;;;;;;-2.35;65.08;103343.47;10334297;28;20038;-61
2024/01/09 10:47:14;;;;;;;1999.90;999.90;;;;;;;-1.56;62.62;103330.00;10332869;28;20481;-61
2024/01/09 10:52:17;;;;;;;1999.90;999.90;;;;;;;-1.89;62.49;103333.13;10334202;28;20070;-61
2024/01/09 10:57:21;;;;;;;1999.90;999.90;;;;;;;-1.82;62.52;103320.53;10334796;28;20046;-61
2024/01/09 11:02:25;;;;;;;1999.90;999.90;;;;;;;-1.22;61.24;103309.66;10334851;28;20108;-61
2024/01/09 11:07:29;;;;;;;1999.90;999.90;;;;;;;-0.73;61.56;103307.72;10333739;28;20058;-62
2024/01/09 11:12:36;;;;;;;1999.90;999.90;;;;;;;-0.87;61.41;103303.03;10331479;28;20056;-62
2024/01/09 11:17:41;;;;;;;1999.90;999.90;;;;;;;1.55;58.53;103303.13;10328860;28;20060;-62
2024/01/09 11:22:44;;;;;;;1999.90;999.90;;;;;;;0.74;57.91;103291.06;10316060;28;20474;-63
2024/01/09 11:27:49;;;;;;;1999.90;999.90;;;;;;;-1.15;60.34;103284.19;10333402;28;20046;-63
2024/01/09 11:32:52;;;;;;;1999.90;999.90;;;;;;;-1.71;61.05;103280.66;10333270;28;20057;-63
2024/01/09 11:37:58;;;;;;;1999.90;999.90;;;;;;;-1.67;62.37;103271.38;10331936;28;20165;-62
2024/01/09 11:43:01;;;;;;;1999.90;999.90;;;;;;;-1.61;60.69;103269.00;10333259;28;20073;-62
2024/01/09 11:48:05;;;;;;;1999.90;999.90;;;;;;;-1.16;60.08;103267.03;10332087;28;20105;-63
2024/01/09 11:53:09;;;;;;;1999.90;999.90;;;;;;;-1.23;60.73;103262.50;10332310;28;20079;-62
2024/01/09 11:58:11;;;;;;;1999.90;999.90;;;;;;;1.10;56.66;103255.72;10340432;28;20145;-63
2024/01/09 12:03:16;;;;;;;1999.90;999.90;;;;;;;1.15;55.77;103255.84;10340257;28;20052;-63
2024/01/09 12:08:19;;;;;;;1999.90;999.90;;;;;;;0.25;57.83;103252.88;10339983;28;20060;-62
2024/01/09 12:13:21;;;;;;;1999.90;999.90;;;;;;;-0.21;57.24;103250.00;10339862;28;20436;-63
2024/01/09 12:18:24;;;;;;;1999.90;999.90;;;;;;;-0.22;59.67;103244.00;10340173;28;20078;-63
2024/01/09 12:23:27;;;;;;;1999.90;999.90;;;;;;;-0.67;59.46;103244.47;10339629;28;20053;-63
2024/01/09 12:28:35;;;;;;;1999.90;999.90;;;;;;;-0.52;58.86;103238.88;10338279;28;20409;-63
2024/01/09 12:33:38;;;;;;;1999.90;999.90;;;;;;;-0.66;58.19;103235.03;10337992;28;20411;-62
2024/01/09 12:38:41;;;;;;;1999.90;999.90;;;;;;;-1.04;58.77;103230.53;10338816;28;20089;-62
2024/01/09 12:43:43;;;;;;;1999.90;999.90;;;;;;;-0.87;59.20;103218.16;10337717;28;20057;-62
2024/01/09 12:48:49;;;;;;;1999.90;999.90;;;;;;;-1.00;58.75;103208.34;10338507;28;20085;-62
2024/01/09 12:53:52;;;;;;;1999.90;999.90;;;;;;;-1.08;58.47;103202.09;10338192;28;20378;-62
2024/01/09 12:58:54;;;;;;;1999.90;999.90;;;;;;;-0.73;58.82;103195.41;10338659;28;20050;-62
2024/01/09 13:03:57;;;;;;;1999.90;999.90;;;;;;;-0.97;58.78;103188.72;10337874;28;20050;-62
2024/01/09 13:08:59;;;;;;;1999.90;999.90;;;;;;;-1.08;59.54;103184.09;10335734;28;20493;-64
2024/01/09 13:14:04;;;;;;;1999.90;999.90;;;;;;;-1.02;57.42;103190.28;10335346;28;20553;-62
2024/01/09 13:19:09;;;;;;;1999.90;999.90;;;;;;;-1.16;57.06;103182.19;10335408;28;20477;-63
2024/01/09 13:24:12;;;;;;;1999.90;999.90;;;;;;;-1.32;58.73;103185.97;10334012;28;20053;-62
2024/01/09 13:29:17;;;;;;;1999.90;999.90;;;;;;;-1.48;59.37;103178.63;10335303;28;20054;-62
2024/01/09 13:34:39;;;;;;;1999.90;999.90;;;;;;;-1.35;58.15;103179.88;10334794;28;20495;-62
2024/01/09 13:39:42;;;;;;;1999.90;999.90;;;;;;;-1.43;58.55;103176.19;10334750;28;20054;-62
2024/01/09 13:44:45;;;;;;;1999.90;999.90;;;;;;;-1.37;58.19;103174.69;10333432;28;20050;-62
2024/01/09 13:49:47;;;;;;;1999.90;999.90;;;;;;;-1.43;57.73;103176.19;10334291;28;20105;-62
2024/01/09 13:55:12;;;;;;;1999.90;999.90;;;;;;;-1.23;57.13;103164.81;10333973;28;20054;-62
2024/01/09 14:00:16;;;;;;;1999.90;999.90;;;;;;;-1.26;56.87;103159.59;10334228;28;20161;-62
2024/01/09 14:05:19;;;;;;;1999.90;999.90;;;;;;;-1.32;57.72;103165.41;10334239;28;20073;-62
2024/01/09 14:10:23;;;;;;;1999.90;999.90;;;;;;;-1.22;57.21;103161.44;10293667;28;1175311;-62
2024/01/09 14:15:25;;;;;;;1999.90;999.90;;;;;;;-1.24;58.01;103160.50;10333684;28;20054;-62
2024/01/09 14:20:29;;;;;;;1999.90;999.90;;;;;;;-1.27;57.09;103157.84;10334071;28;20057;-62
2024/01/09 14:25:31;;;;;;;1999.90;999.90;;;;;;;-1.42;57.95;103162.53;10334687;28;20125;-62
2024/01/09 14:30:33;;;;;;;1999.90;999.90;;;;;;;-1.33;57.08;103166.25;10334727;28;20050;-62
2024/01/09 14:35:37;;;;;;;1999.90;999.90;;;;;;;-1.49;56.22;103166.63;10334569;28;20062;-62
2024/01/09 14:40:39;;;;;;;1999.90;999.90;;;;;;;-1.43;57.30;103166.81;10334491;28;20056;-62
2024/01/09 14:45:42;;;;;;;1999.90;999.90;;;;;;;-1.60;57.86;103157.69;10334231;28;20050;-62
2024/01/09 14:50:44;;;;;;;1999.90;999.90;;;;;;;-1.66;58.65;103153.25;10332955;28;20050;-62
2024/01/09 14:55:47;;;;;;;1999.90;999.90;;;;;;;-1.52;58.25;103157.09;10334094;28;20052;-62
2024/01/09 15:00:51;;;;;;;1999.90;999.90;;;;;;;-1.82;56.76;103151.88;10333543;28;20058;-62
2024/01/09 15:05:54;;;;;;;1999.90;999.90;;;;;;;-1.76;58.98;103158.94;10333632;28;20474;-62
2024/01/09 15:10:56;;;;;;;1999.90;999.90;;;;;;;-1.90;59.19;103154.22;10333570;28;20062;-62
2024/01/09 15:15:58;;;;;;;1999.90;999.90;;;;;;;-1.75;58.56;103150.38;10333393;28;20082;-62
2024/01/09 15:21:01;;;;;;;1999.90;999.90;;;;;;;-1.93;59.24;103163.53;10333257;28;20056;-62
2024/01/09 15:26:03;;;;;;;1999.90;999.90;;;;;;;-1.94;58.41;103161.78;10333743;28;20070;-62
2024/01/09 15:31:06;;;;;;;1999.90;999.90;;;;;;;-2.16;58.96;103148.22;10338544;28;20086;-62
2024/01/09 15:36:08;;;;;;;1999.90;999.90;;;;;;;-2.00;59.15;103159.00;10341139;28;20069;-62
2024/01/09 15:41:11;;;;;;;1999.90;999.90;;;;;;;-2.08;60.09;103157.06;10341152;28;20050;-62
2024/01/09 15:46:24;;;;;;;1999.90;999.90;;;;;;;-2.13;59.88;103155.16;10340819;28;20050;-62
2024/01/09 15:51:30;;;;;;;1999.90;999.90;;;;;;;-2.16;60.09;103163.63;10340146;28;20089;-62
2024/01/09 15:56:33;;;;;;;1999.90;999.90;;;;;;;-2.33;61.03;103175.03;10338671;28;20163;-62
2024/01/09 16:01:37;;;;;;;1999.90;999.90;;;;;;;-2.30;61.00;103173.44;10338025;28;20057;-62
2024/01/09 16:06:40;;;;;;;1999.90;999.90;;;;;;;-2.35;59.74;103179.25;10337582;28;20054;-62
2024/01/09 16:11:47;;;;;;;1999.90;999.90;;;;;;;-2.26;60.11;103180.41;10337960;28;20413;-62
2024/01/09 16:16:52;;;;;;;1999.90;999.90;;;;;;;-2.37;61.07;103184.31;10339596;28;20413;-62
2024/01/09 16:21:54;;;;;;;1999.90;999.90;;;;;;;-2.52;60.91;103188.88;10339634;28;20073;-62
2024/01/09 16:26:56;;;;;;;1999.90;999.90;;;;;;;-2.57;60.98;103180.16;10339444;28;20072;-62
2024/01/09 16:31:59;;;;;;;1999.90;999.90;;;;;;;-2.82;63.36;103181.88;10339775;28;20138;-62
2024/01/09 16:37:01;;;;;;;1999.90;999.90;;;;;;;-2.71;61.61;103179.69;10338952;28;20134;-62
2024/01/09 16:42:04;;;;;;;1999.90;999.90;;;;;;;-2.79;61.80;103184.53;10338474;28;20490;-62
2024/01/09 16:47:06;;;;;;;1999.90;999.90;;;;;;;-2.70;62.32;103181.44;10338638;28;20046;-62
2024/01/09 16:52:09;;;;;;;1999.90;999.90;;;;;;;-2.95;62.62;103177.97;10338532;28;20058;-62
2024/01/09 16:57:11;;;;;;;1999.90;999.90;;;;;;;-2.87;65.11;103175.69;10338175;28;20046;-62
2024/01/09 17:02:14;;;;;;;1999.90;999.90;;;;;;;-3.05;64.73;103170.75;10338208;28;20092;-61
2024/01/09 17:07:16;;;;;;;1999.90;999.90;;;;;;;-3.08;63.64;103181.75;10337776;28;20050;-62
2024/01/09 17:12:19;;;;;;;1999.90;999.90;;;;;;;-2.92;64.11;103172.09;10337471;28;20086;-62
2024/01/09 17:17:21;;;;;;;1999.90;999.90;;;;;;;-3.05;64.62;103170.75;10337377;28;20125;-62
2024/01/09 17:22:24;;;;;;;1999.90;999.90;;;;;;;-3.17;64.45;103156.66;10337129;28;20058;-62
2024/01/09 17:27:26;;;;;;;1999.90;999.90;;;;;;;-3.04;63.77;103164.84;10337171;28;20055;-62
2024/01/09 17:32:28;;;;;;;1999.90;999.90;;;;;;;-3.10;62.91;103170.59;10336538;28;20398;-62
2024/01/09 17:37:31;;;;;;;1999.90;999.90;;;;;;;-3.30;65.31;103168.97;10336891;28;20058;-62
2024/01/09 17:42:33;;;;;;;1999.90;999.90;;;;;;;-3.12;63.88;103169.66;10336562;28;20448;-64
2024/01/09 17:47:39;;;;;;;1999.90;999.90;;;;;;;-3.02;63.36;103179.44;10335399;28;20054;-64
2024/01/09 17:52:42;;;;;;;1999.90;999.90;;;;;;;-3.26;64.64;103178.50;10334744;28;20133;-64
2024/01/09 17:57:44;;;;;;;1999.90;999.90;;;;;;;-3.39;65.51;103169.50;10335806;28;20108;-64
2024/01/09 18:02:47;;;;;;;1999.90;999.90;;;;;;;-3.32;64.61;103176.59;10335878;28;20051;-64
2024/01/09 18:07:49;;;;;;;1999.90;999.90;;;;;;;-3.33;64.31;103176.53;10335310;28;20447;-64
2024/01/09 18:12:52;;;;;;;1999.90;999.90;;;;;;;-3.34;64.36;103179.94;10335119;28;20058;-64
2024/01/09 18:17:54;;;;;;;1999.90;999.90;;;;;;;-3.16;64.94;103188.31;10335101;28;20054;-63
2024/01/09 18:22:57;;;;;;;1999.90;999.90;;;;;;;-3.19;64.56;103176.25;10348936;23;20046;-66
2024/01/09 18:28:03;;;;;;;1999.90;999.90;;;;;;;-3.50;65.41;103169.06;10334842;28;20050;-66
2024/01/09 18:33:05;;;;;;;1999.90;999.90;;;;;;;-3.52;64.33;103180.94;10334553;28;20046;-66
2024/01/09 18:38:07;;;;;;;1999.90;999.90;;;;;;;-3.66;65.88;103180.41;10333205;28;20567;-66
2024/01/09 18:43:10;;;;;;;1999.90;999.90;;;;;;;-3.44;65.44;103176.13;10334332;28;20050;-67
2024/01/09 18:48:14;;;;;;;1999.90;999.90;;;;;;;-3.43;64.66;103180.41;10333008;28;20425;-66
2024/01/09 18:53:17;;;;;;;1999.90;999.90;;;;;;;-3.67;66.65;103182.91;10334178;28;20054;-66
2024/01/09 18:58:22;;;;;;;1999.90;999.90;;;;;;;-3.71;68.21;103194.72;10333786;28;20097;-68
2024/01/09 19:03:24;;;;;;;1999.90;999.90;;;;;;;-3.59;64.24;103195.19;10333146;28;20050;-68
2024/01/09 19:08:27;;;;;;;1999.90;999.90;;;;;;;-3.57;65.17;103192.69;10333711;28;20054;-68
2024/01/09 19:13:29;;;;;;;1999.90;999.90;;;;;;;-3.45;65.20;103189.72;10333608;28;20046;-68
2024/01/09 19:18:32;;;;;;;1999.90;999.90;;;;;;;-3.49;64.14;103187.88;10332394;28;20058;-68
2024/01/09 19:23:34;;;;;;;1999.90;999.90;;;;;;;-3.58;66.95;103184.16;10332637;28;20060;-68
2024/01/09 19:28:37;;;;;;;1999.90;999.90;;;;;;;-3.87;66.87;103182.97;10333517;28;20061;-68
2024/01/09 19:33:40;;;;;;;1999.90;999.90;;;;;;;-3.96;67.44;103170.66;10333153;28;20042;-68
2024/01/09 19:38:42;;;;;;;1999.90;999.90;;;;;;;-3.86;67.17;103164.25;10331934;28;20077;-68
2024/01/09 19:43:45;;;;;;;1999.90;999.90;;;;;;;-3.95;66.92;103164.75;10333859;28;20089;-70
2024/01/09 19:48:47;;;;;;;1999.90;999.90;;;;;;;-3.93;67.72;103164.81;10332093;28;20058;-70
2024/01/09 19:53:50;;;;;;;1999.90;999.90;;;;;;;-4.03;69.93;103168.69;10332877;28;20129;-70
2024/01/09 19:58:52;;;;;;;1999.90;999.90;;;;;;;-4.34;70.49;103167.41;10331672;28;20485;-70
2024/01/09 20:03:54;;;;;;;1999.90;999.90;;;;;;;-4.31;69.65;103164.97;10332972;28;20085;-71
2024/01/09 20:08:57;;;;;;;1999.90;999.90;;;;;;;-4.32;70.93;103167.44;10315584;28;20047;-71
2024/01/09 20:13:59;;;;;;;1999.90;999.90;;;;;;;-4.25;69.58;103158.34;10332927;28;20101;-71
2024/01/09 20:19:04;;;;;;;1999.90;999.90;;;;;;;-4.17;68.67;103162.09;10322489;28;20077;-71
2024/01/09 20:24:07;;;;;;;1999.90;999.90;;;;;;;-4.05;68.27;103156.63;10341886;28;20420;-67
2024/01/09 20:29:09;;;;;;;1999.90;999.90;;;;;;;-4.27;67.90;103157.41;10338122;28;20400;-67
2024/01/09 20:34:12;;;;;;;1999.90;999.90;;;;;;;-4.19;68.11;103156.91;10337965;28;20065;-68
2024/01/09 20:39:16;;;;;;;1999.90;999.90;;;;;;;-4.51;68.26;103163.25;10337813;28;20101;-68
2024/01/09 20:44:20;;;;;;;1999.90;999.90;;;;;;;-4.32;69.28;103165.78;10337687;28;20130;-68
2024/01/09 20:49:22;;;;;;;1999.90;999.90;;;;;;;-4.05;69.37;103161.75;10337912;28;20154;-67
2024/01/09 20:54:24;;;;;;;1999.90;999.90;;;;;;;-4.14;68.41;103154.56;10337061;28;20540;-67
2024/01/09 20:59:27;;;;;;;1999.90;999.90;;;;;;;-4.33;69.52;103148.69;10338431;28;20061;-67
2024/01/09 21:04:31;;;;;;;1999.90;999.90;;;;;;;-4.17;69.22;103147.66;10337298;28;20050;-67
2024/01/09 21:09:34;;;;;;;1999.90;999.90;;;;;;;-4.10;68.17;103143.66;10337784;28;20455;-67
2024/01/09 21:14:36;;;;;;;1999.90;999.90;;;;;;;-4.41;67.18;103144.06;10336474;28;20053;-68
2024/01/09 21:19:39;;;;;;;1999.90;999.90;;;;;;;-4.48;66.18;103137.81;10337318;28;20501;-68
2024/01/09 21:24:44;;;;;;;1999.90;999.90;;;;;;;-4.17;66.33;103131.41;10337378;28;20058;-68
2024/01/09 21:29:47;;;;;;;1999.90;999.90;;;;;;;-4.56;67.41;103134.91;10336244;28;20050;-68
2024/01/09 21:34:49;;;;;;;1999.90;999.90;;;;;;;-4.55;67.19;103135.81;10336698;28;20484;-68
2024/01/09 21:39:52;;;;;;;1999.90;999.90;;;;;;;-4.73;68.86;103134.19;10336767;28;20046;-68
2024/01/09 21:44:54;;;;;;;1999.90;999.90;;;;;;;-4.74;70.40;103129.00;10336568;28;20050;-68
2024/01/09 21:49:56;;;;;;;1999.90;999.90;;;;;;;-4.69;69.89;103132.63;10335233;28;20046;-68
2024/01/09 21:54:59;;;;;;;1999.90;999.90;;;;;;;-4.71;69.62;103131.72;10336320;28;20524;-68
2024/01/09 22:00:03;;;;;;;1999.90;999.90;;;;;;;-4.60;66.78;103125.38;10336111;28;20082;-68
2024/01/09 22:05:09;;;;;;;1999.90;999.90;;;;;;;-4.30;66.27;103128.34;10334642;28;20050;-68